Accueil
METAR-TAF:

METAR-TAF

Aéroports :

Chambery / Aix-Les-Bains, France

Aéroport de Chambéry-Savoie

latitude: 45-39N, longitude: 005-53E, altitude: 235 m

Observation

Le bulletin a été fait il y a 22 minutes, à 06:30 UTC
Vent calme
Température 14°C
Humidité 77%
Pression 1019 hPa
Visibilité 10 km ou plus
pas de nuages en-dessous de 1500 mètres et pas de cumulonimbus.

METAR: LFLB 220630Z AUTO 00000KT CAVOK 14/10 Q1019 NOSIG

Heure: 08:52 (06:52 UTC)

Prévision

Le bulletin a été fait il y a 1 heure et 52 minutes, à 05:00 UTC
Prévision valable du 22 à 06 UTC au 23 à 06 UTC
Vent 2 kt de direction variable
Visibilité 10 km ou plus
pas de nuages en-dessous de 1500 mètres et pas de cumulonimbus.
Temporairement
du 22 à 10 UTC au 22 à 16 UTC
Vent 8 kt de nord

TAF: LFLB 220500Z 2206/2306 VRB02KT CAVOK TEMPO 2210/2216 36008KT

Observations et prévisions météorologiques de plus de 4000 aéroports (messages METAR et TAF).

Les stations disponibles sont représentées par des disques jaunes et rouges sur la carte.

Passer la souris dessus pour voir le nom de la station.

Cliquer dessus pour voir les observations et prévisions météorologiques.

Pour changer de carte: cliquez sur les boutons verts avec une croix noire pour zoomer, sur le bouton vert avec un tiret pour effectuer un zoom arrière, ou sur les flèches vertes pour les cartes adjacentes.


METAR-TAF: